Al Hamla — V7MX9 — position and weather

sailwx.info

Track history (hours):
 
Tides and Currents Weather Stations Pressure Air Temp Water Temp Dewpoint Dewpoint Depression Visibility Wind Speed Wind Dir Waves Ship Positions

Al Hamla

Last reported at 2015-May-27 11:33 UTC. Time now 2015-May-27 11:55 UTC.
Position N 36°27' E 014°26'.

Length 350 m; draft 12 m.

Type: Tanker. MMSI: 538002922.

Date/timePositionNaut miles runAvg speedWind from/ knotsBaromVisibWave heightAir tempDewpointWater temp
2015-May-27 11:33N 36°27' E 014°26'1716.7
2015-May-27 10:33N 36°22' E 014°46'70417.6
2015-May-25 18:30N 32°48' E 028°21'1718.1
2015-May-25 17:33N 32°42' E 028°40'1918.8
2015-May-25 16:33N 32°37' E 029°02'1919.0
2015-May-25 15:33N 32°31' E 029°23'4218.9
2015-May-25 13:19N 32°19' E 030°11'1419.0
2015-May-25 12:33N 32°14' E 030°27'1919.0
2015-May-25 11:33N 32°09' E 030°49'1919.1
2015-May-25 10:33N 32°03' E 031°10'2018.7
2015-May-25 09:30N 31°57' E 031°32'1818.3
2015-May-25 08:30N 31°51' E 031°52'1717.9
2015-May-25 07:33N 31°39' E 032°07'1716.6
2015-May-25 06:33N 31°28' E 032°22'1511.7
2015-May-25 05:15N 31°13' E 032°20'9 9.2
2015-May-25 04:14N 31°04' E 032°19'710.1
2015-May-25 03:33N 30°57' E 032°19'1010.0
2015-May-25 02:34N 30°47' E 032°20'  
2015-May-17 19:08N 26°06' E 055°15'3818.7
2015-May-17 17:05N 26°10' E 054°33'4919.5
2015-May-17 14:33N 26°09' E 053°38'  
Track history (hours):
 
Tides and Currents Weather Stations Pressure Air Temp Water Temp Dewpoint Dewpoint Depression Visibility Wind Speed Wind Dir Waves Ship Positions

Al Hamla

Last reported at 2015-May-27 11:33 UTC. Time now 2015-May-27 11:55 UTC.
Position N 36°27' E 014°26'.

Length 350 m; draft 12 m.

Type: Tanker. MMSI: 538002922.

Date/timePositionNaut miles runAvg speedWind from/ knotsBaromVisibWave heightAir tempDewpointWater temp
2015-May-27 11:33N 36°27' E 014°26'1716.7
2015-May-27 10:33N 36°22' E 014°46'70417.6
2015-May-25 18:30N 32°48' E 028°21'1718.1
2015-May-25 17:33N 32°42' E 028°40'1918.8
2015-May-25 16:33N 32°37' E 029°02'1919.0
2015-May-25 15:33N 32°31' E 029°23'4218.9
2015-May-25 13:19N 32°19' E 030°11'1419.0
2015-May-25 12:33N 32°14' E 030°27'1919.0
2015-May-25 11:33N 32°09' E 030°49'1919.1
2015-May-25 10:33N 32°03' E 031°10'2018.7
2015-May-25 09:30N 31°57' E 031°32'1818.3
2015-May-25 08:30N 31°51' E 031°52'1717.9
2015-May-25 07:33N 31°39' E 032°07'1716.6
2015-May-25 06:33N 31°28' E 032°22'1511.7
2015-May-25 05:15N 31°13' E 032°20'9 9.2
2015-May-25 04:14N 31°04' E 032°19'710.1
2015-May-25 03:33N 30°57' E 032°19'1010.0
2015-May-25 02:34N 30°47' E 032°20'  
2015-May-17 19:08N 26°06' E 055°15'3818.7
2015-May-17 17:05N 26°10' E 054°33'4919.5
2015-May-17 14:33N 26°09' E 053°38'  

Dump ship's entire track history